Time;durP1;ratioP1;P1;durP2;ratioP2;P2;SDS_P1;SDS_P2;PMS_P1;PMS_P2;Temp;Humidity;BMP_temperature;BMP_pressure;BME280_temperature;BME280_humidity;BME280_pressure;Samples;Min_cycle;Max_cycle;Signal;HPM_P1;HPM_P2
2021/09/27 00:01:02;;;;;;;;;;;;;;;12.81;85.79;100718.58;1382130;89;20264;-89
2021/09/27 00:03:31;;;;;;;;;;;;;;;12.79;86.61;100721.87;1375504;90;20331;-89
2021/09/27 00:05:58;;;;;;;;;;;;;;;12.78;85.68;100713.08;1374619;89;20859;-89
2021/09/27 00:08:26;;;;;;;;;;;;;;;12.81;85.51;100715.92;1374784;89;20241;-92
2021/09/27 00:11:02;;;;;;;;;;;;;;;12.79;86.27;100717.89;1378988;89;20835;-92
2021/09/27 00:13:32;;;;;;;;;;;;;;;12.73;86.28;100722.00;1378684;89;20234;-91
2021/09/27 00:15:59;;;;;;;;;;;;;;;12.69;86.11;100727.77;1378028;90;20227;-92
2021/09/27 00:18:27;;;;;;;;;;;;;;;12.67;85.57;100730.59;1364365;91;20323;-91
2021/09/27 00:20:57;;;;;;;;;;;;;;;12.64;86.60;100721.11;1364142;90;20242;-91
2021/09/27 00:23:25;;;;;;;;;;;;;;;12.65;86.20;100720.11;1377436;90;20302;-91
2021/09/27 00:25:52;;;;;;;;;;;;;;;12.63;86.15;100714.64;1377074;89;20227;-91
2021/09/27 00:28:20;;;;;;;;;;;;;;;12.59;86.72;100716.74;1377051;89;20294;-91
2021/09/27 00:30:47;;;;;;;;;;;;;;;12.62;86.33;100714.28;1376392;89;20235;-91
2021/09/27 00:33:17;;;;;;;;;;;;;;;12.60;86.90;100709.60;1376440;89;20787;-90
2021/09/27 00:35:44;;;;;;;;;;;;;;;12.59;86.71;100711.43;1376188;89;20792;-90
2021/09/27 00:38:11;;;;;;;;;;;;;;;12.61;87.32;100713.95;1376807;89;20310;-91
2021/09/27 00:40:42;;;;;;;;;;;;;;;12.58;87.45;100703.14;1376650;89;20219;-91
2021/09/27 00:43:09;;;;;;;;;;;;;;;12.54;87.81;100692.97;1376364;90;20241;-91
2021/09/27 00:45:40;;;;;;;;;;;;;;;12.47;88.31;100690.10;1376571;90;20234;-90
2021/09/27 00:48:08;;;;;;;;;;;;;;;12.44;87.69;100688.25;1377079;89;20271;-90
2021/09/27 00:50:39;;;;;;;;;;;;;;;12.35;88.30;100692.66;1370521;90;20412;-91
2021/09/27 00:53:10;;;;;;;;;;;;;;;12.28;88.34;100692.91;1358262;91;20837;-90
2021/09/27 00:55:37;;;;;;;;;;;;;;;12.24;88.72;100687.08;1358366;90;20917;-89
2021/09/27 00:58:04;;;;;;;;;;;;;;;12.23;88.33;100689.88;1358275;90;20360;-90
2021/09/27 01:00:31;;;;;;;;;;;;;;;12.26;87.86;100688.27;1358970;91;20294;-91
2021/09/27 01:02:58;;;;;;;;;;;;;;;12.27;88.53;100696.56;1361894;91;20821;-90
2021/09/27 01:05:25;;;;;;;;;;;;;;;12.27;89.55;100702.70;1362529;90;20824;-92
2021/09/27 01:08:08;;;;;;;;;;;;;;;12.25;89.68;100704.66;1365696;90;20220;-91
2021/09/27 01:10:51;;;;;;;;;;;;;;;12.26;88.89;100702.87;1365347;91;20234;-93
2021/09/27 01:16:08;;;;;;;;;;;;;;;12.29;88.10;100691.95;1355937;89;20236;-91
2021/09/27 01:18:55;;;;;;;;;;;;;;;12.24;88.39;100692.39;1354268;92;20252;-90
2021/09/27 01:21:45;;;;;;;;;;;;;;;12.21;87.41;100690.54;1358823;90;20251;-90
2021/09/27 01:24:37;;;;;;;;;;;;;;;12.12;87.93;100686.48;1335906;93;20247;-88
2021/09/27 01:27:43;;;;;;;;;;;;;;;12.05;88.99;100682.75;1345148;92;20259;-93
2021/09/27 01:30:30;;;;;;;;;;;;;;;12.02;88.62;100672.44;1342438;92;20317;-91
2021/09/27 01:33:03;;;;;;;;;;;;;;;11.97;89.05;100661.47;1329677;92;20733;-92
2021/09/27 01:35:54;;;;;;;;;;;;;;;11.88;89.42;100652.60;1342131;93;20253;-92
2021/09/27 01:38:49;;;;;;;;;;;;;;;11.86;89.76;100654.56;1339839;93;20261;-92
2021/09/27 01:41:22;;;;;;;;;;;;;;;11.84;89.50;100656.48;1340668;93;20410;-91
2021/09/27 01:44:10;;;;;;;;;;;;;;;11.85;89.10;100659.97;1359783;91;20251;-91
2021/09/27 01:46:56;;;;;;;;;;;;;;;11.84;90.01;100656.98;1359518;90;20266;-92
2021/09/27 01:49:45;;;;;;;;;;;;;;;11.88;90.18;100654.39;1359430;90;20386;-93
2021/09/27 01:52:19;;;;;;;;;;;;;;;11.87;90.39;100656.22;1357378;91;20259;-91
2021/09/27 01:54:48;;;;;;;;;;;;;;;11.85;90.04;100658.64;1359014;90;20363;-92
2021/09/27 01:57:25;;;;;;;;;;;;;;;11.84;89.46;100659.64;1358165;91;20250;-88
2021/09/27 02:00:01;;;;;;;;;;;;;;;11.79;90.16;100668.03;1354959;91;20720;-88
2021/09/27 02:02:43;;;;;;;;;;;;;;;11.78;90.40;100668.20;1355588;91;20741;-87
2021/09/27 02:05:35;;;;;;;;;;;;;;;11.78;90.00;100663.72;1348814;92;20251;-88
2021/09/27 02:08:08;;;;;;;;;;;;;;;11.79;90.04;100663.22;1355514;90;21229;-88
2021/09/27 02:10:44;;;;;;;;;;;;;;;11.79;90.40;100660.57;1355587;91;20229;-90
2021/09/27 02:13:19;;;;;;;;;;;;;;;11.81;89.91;100654.63;1358734;91;20809;-91
2021/09/27 02:16:11;;;;;;;;;;;;;;;11.81;90.45;100655.96;1352147;90;20329;-90
2021/09/27 02:18:50;;;;;;;;;;;;;;;11.80;89.95;100651.65;1358618;91;20734;-91
2021/09/27 02:21:20;;;;;;;;;;;;;;;11.75;89.95;100646.29;1358067;91;20820;-90
2021/09/27 02:23:53;;;;;;;;;;;;;;;11.69;89.93;100653.52;1360198;91;20245;-90
2021/09/27 02:26:20;;;;;;;;;;;;;;;11.64;89.95;100658.42;1358223;91;20252;-89
2021/09/27 02:28:47;;;;;;;;;;;;;;;11.60;91.56;100653.09;1358337;91;20284;-90
2021/09/27 02:31:27;;;;;;;;;;;;;;;11.56;91.17;100651.70;1358218;91;20236;-91
2021/09/27 02:34:04;;;;;;;;;;;;;;;11.53;91.48;100652.00;1358161;91;20810;-90
2021/09/27 02:36:40;;;;;;;;;;;;;;;11.53;90.74;100655.98;1359273;91;20259;-90
2021/09/27 02:39:24;;;;;;;;;;;;;;;11.54;91.32;100655.02;1357072;91;20251;-90
2021/09/27 02:42:22;;;;;;;;;;;;;;;11.53;92.69;100657.30;1359343;91;21201;-91
2021/09/27 02:44:49;;;;;;;;;;;;;;;11.53;92.83;100662.11;1359308;91;20256;-92
2021/09/27 02:47:19;;;;;;;;;;;;;;;11.56;92.44;100666.28;1359585;91;20372;-89
2021/09/27 02:49:47;;;;;;;;;;;;;;;11.55;92.26;100651.87;1356247;91;20341;-90
2021/09/27 02:52:17;;;;;;;;;;;;;;;11.58;91.55;100658.20;1350369;91;20867;-90
2021/09/27 02:54:50;;;;;;;;;;;;;;;11.59;91.48;100654.55;1358482;91;20251;-90
2021/09/27 02:57:43;;;;;;;;;;;;;;;11.59;91.29;100658.03;1348141;91;20354;-89
2021/09/27 03:00:19;;;;;;;;;;;;;;;11.61;90.79;100661.38;1327573;94;20867;-89
2021/09/27 03:03:08;;;;;;;;;;;;;;;11.64;90.71;100669.53;1340011;93;20752;-90
2021/09/27 03:05:54;;;;;;;;;;;;;;;11.66;90.51;100671.05;1338685;92;20314;-88
2021/09/27 03:08:39;;;;;;;;;;;;;;;11.69;90.86;100666.78;1338624;92;20350;-88
2021/09/27 03:11:19;;;;;;;;;;;;;;;11.67;90.46;100659.45;1337888;92;20246;-88
2021/09/27 03:14:08;;;;;;;;;;;;;;;11.68;90.41;100666.45;1340309;93;20990;-92
2021/09/27 03:17:12;;;;;;;;;;;;;;;11.66;90.00;100660.45;1344127;92;20195;-91
2021/09/27 03:20:08;;;;;;;;;;;;;;;11.67;90.29;100664.75;1345569;92;20261;-92
2021/09/27 03:22:44;;;;;;;;;;;;;;;11.67;90.54;100668.73;1345640;92;20245;-92
2021/09/27 03:25:21;;;;;;;;;;;;;;;11.70;90.31;100667.11;1338303;92;20247;-91
2021/09/27 03:28:11;;;;;;;;;;;;;;;11.70;90.21;100655.17;1361955;91;20250;-90
2021/09/27 03:31:15;;;;;;;;;;;;;;;11.58;90.67;100649.75;1363627;91;20764;-90
2021/09/27 03:33:59;;;;;;;;;;;;;;;11.48;91.67;100652.96;1364494;90;20321;-90
2021/09/27 03:36:41;;;;;;;;;;;;;;;11.42;90.87;100652.20;1365406;91;20594;-92
2021/09/27 03:41:47;;;;;;;;;;;;;;;11.34;91.44;100653.45;1342938;93;20231;-92
2021/09/27 03:44:26;;;;;;;;;;;;;;;11.34;92.15;100650.80;1338260;92;20743;-90
2021/09/27 03:47:08;;;;;;;;;;;;;;;11.29;93.02;100652.06;1337944;93;20810;-91
2021/09/27 03:49:48;;;;;;;;;;;;;;;11.28;92.35;100649.58;1338262;93;20187;-91
2021/09/27 03:52:27;;;;;;;;;;;;;;;11.26;93.20;100638.28;1337357;92;20245;-88
2021/09/27 03:55:13;;;;;;;;;;;;;;;11.28;92.60;100638.48;1335570;93;20351;-89
2021/09/27 03:57:50;;;;;;;;;;;;;;;11.26;93.12;100639.11;1327444;94;20869;-87
2021/09/27 04:00:26;;;;;;;;;;;;;;;11.28;93.07;100642.45;1330980;91;20251;-89
2021/09/27 04:03:08;;;;;;;;;;;;;;;11.32;93.05;100637.69;1334350;94;20266;-89
2021/09/27 04:06:06;;;;;;;;;;;;;;;11.35;92.93;100641.86;1336244;93;20877;-89
2021/09/27 04:08:42;;;;;;;;;;;;;;;11.37;92.52;100643.87;1336951;92;20252;-89
2021/09/27 04:11:39;;;;;;;;;;;;;;;11.36;92.98;100643.52;1319441;94;20254;-88
2021/09/27 04:14:22;;;;;;;;;;;;;;;11.35;93.97;100645.84;1335984;92;20252;-89
2021/09/27 04:16:52;;;;;;;;;;;;;;;11.33;93.15;100646.47;1335905;92;20237;-89
2021/09/27 04:19:38;;;;;;;;;;;;;;;11.32;93.03;100655.41;1335673;93;20238;-89
2021/09/27 04:22:15;;;;;;;;;;;;;;;11.33;93.02;100662.36;1336097;93;20728;-89
2021/09/27 04:24:57;;;;;;;;;;;;;;;11.34;92.70;100656.10;1325424;93;20304;-87
2021/09/27 04:27:31;;;;;;;;;;;;;;;11.39;91.93;100648.52;1334771;92;20237;-87
2021/09/27 04:30:24;;;;;;;;;;;;;;;11.36;92.76;100648.81;1335021;92;20229;-88
2021/09/27 04:33:10;;;;;;;;;;;;;;;11.36;92.22;100644.84;1335386;91;20830;-90
2021/09/27 04:35:59;;;;;;;;;;;;;;;11.32;92.24;100646.13;1335753;93;20237;-88
2021/09/27 04:38:26;;;;;;;;;;;;;;;11.33;91.95;100646.47;1335626;93;20259;-90
2021/09/27 04:41:15;;;;;;;;;;;;;;;11.30;92.26;100645.77;1332449;92;20250;-87
2021/09/27 04:44:20;;;;;;;;;;;;;;;11.34;92.08;100646.83;1354313;92;20302;-88
2021/09/27 04:47:18;;;;;;;;;;;;;;;11.31;92.64;100642.66;1355287;91;20244;-88
2021/09/27 04:50:12;;;;;;;;;;;;;;;11.35;92.49;100641.86;1352256;91;20304;-92
2021/09/27 04:52:42;;;;;;;;;;;;;;;11.37;92.90;100650.01;1355435;92;20266;-90
2021/09/27 04:55:28;;;;;;;;;;;;;;;11.38;92.82;100649.02;1354652;91;20244;-89
2021/09/27 04:58:13;;;;;;;;;;;;;;;11.44;92.54;100659.52;1354507;92;20221;-91
2021/09/27 05:01:17;;;;;;;;;;;;;;;11.53;92.30;100667.91;1353031;91;20236;-90
2021/09/27 05:04:00;;;;;;;;;;;;;;;11.62;92.30;100665.69;1354599;91;20296;-90
2021/09/27 05:06:33;;;;;;;;;;;;;;;11.74;92.28;100658.39;1337349;93;20870;-90
2021/09/27 05:09:23;;;;;;;;;;;;;;;11.81;92.17;100645.35;1336313;94;20880;-91
2021/09/27 05:12:12;;;;;;;;;;;;;;;11.87;91.66;100647.44;1335926;93;20261;-89
2021/09/27 05:14:54;;;;;;;;;;;;;;;11.93;91.37;100650.80;1336441;93;20335;-90
2021/09/27 05:17:37;;;;;;;;;;;;;;;11.95;92.33;100651.50;1313010;94;20900;-90
2021/09/27 05:20:23;;;;;;;;;;;;;;;12.02;91.99;100647.73;1336368;93;20358;-90
2021/09/27 05:23:08;;;;;;;;;;;;;;;12.08;92.53;100659.89;1336161;93;20261;-91
2021/09/27 05:25:41;;;;;;;;;;;;;;;12.13;93.02;100657.63;1336643;93;21098;-89
2021/09/27 05:28:30;;;;;;;;;;;;;;;12.25;92.00;100658.72;1336628;92;20812;-90
2021/09/27 05:31:04;;;;;;;;;;;;;;;12.31;93.39;100662.09;1335834;94;20775;-90
2021/09/27 05:33:54;;;;;;;;;;;;;;;12.45;92.05;100657.55;1335914;92;20307;-90
2021/09/27 05:36:31;;;;;;;;;;;;;;;12.51;93.00;100662.75;1336457;93;20314;-90
2021/09/27 05:39:08;;;;;;;;;;;;;;;12.60;92.63;100660.02;1335920;95;20247;-90
2021/09/27 05:42:00;;;;;;;;;;;;;;;12.69;92.25;100659.58;1325068;93;20254;-92
2021/09/27 05:44:59;;;;;;;;;;;;;;;12.76;92.44;100664.59;1318102;94;20314;-91
2021/09/27 05:47:39;;;;;;;;;;;;;;;12.84;92.81;100665.97;1317562;94;20254;-91
2021/09/27 05:50:18;;;;;;;;;;;;;;;13.01;92.14;100670.89;1318173;94;20231;-91
2021/09/27 05:53:04;;;;;;;;;;;;;;;13.18;91.80;100678.97;1313288;93;20254;-90
2021/09/27 05:55:43;;;;;;;;;;;;;;;13.31;91.47;100682.86;1318222;93;20285;-91
2021/09/27 05:58:26;;;;;;;;;;;;;;;13.46;90.90;100673.78;1318763;93;20232;-92
2021/09/27 06:00:59;;;;;;;;;;;;;;;13.52;91.14;100665.19;1318904;94;20260;-91
2021/09/27 06:03:35;;;;;;;;;;;;;;;13.64;90.33;100656.91;1311480;94;20247;-90
2021/09/27 06:06:26;;;;;;;;;;;;;;;13.77;90.30;100662.08;1318475;93;20745;-91
2021/09/27 06:09:04;;;;;;;;;;;;;;;13.78;90.52;100650.94;1318301;94;20328;-89
2021/09/27 06:11:55;;;;;;;;;;;;;;;13.79;90.66;100657.94;1317132;96;20224;-88
2021/09/27 06:14:22;;;;;;;;;;;;;;;13.91;90.02;100657.95;1317176;94;20321;-87
2021/09/27 06:17:22;;;;;;;;;;;;;;;13.97;90.50;100668.45;1317670;93;20254;-88
2021/09/27 06:20:10;;;;;;;;;;;;;;;14.13;90.18;100672.98;1317659;93;20369;-88
2021/09/27 06:22:49;;;;;;;;;;;;;;;14.36;89.49;100667.83;1319821;94;20262;-90
2021/09/27 06:25:24;;;;;;;;;;;;;;;14.50;88.77;100654.33;1293674;96;20260;-82
2021/09/27 06:28:00;;;;;;;;;;;;;;;14.61;88.52;100656.67;1318065;94;20313;-88
2021/09/27 06:30:53;;;;;;;;;;;;;;;14.75;88.35;100654.66;1317849;95;20291;-86
2021/09/27 06:33:30;;;;;;;;;;;;;;;14.88;88.14;100646.98;1316947;94;20374;-85
2021/09/27 06:35:58;;;;;;;;;;;;;;;14.92;87.70;100651.97;1317274;94;20767;-86
2021/09/27 06:38:32;;;;;;;;;;;;;;;14.93;87.26;100648.30;1310862;94;20254;-85
2021/09/27 06:40:59;;;;;;;;;;;;;;;15.14;87.16;100652.58;1317428;93;20262;-86
2021/09/27 06:43:27;;;;;;;;;;;;;;;15.18;86.50;100649.06;1317255;94;20812;-87
2021/09/27 06:45:55;;;;;;;;;;;;;;;15.34;86.42;100649.00;1317513;94;20351;-86
2021/09/27 06:48:24;;;;;;;;;;;;;;;15.47;85.54;100651.10;1317041;94;20344;-86
2021/09/27 06:50:52;;;;;;;;;;;;;;;15.62;85.43;100653.34;1317610;94;20389;-87
2021/09/27 06:53:19;;;;;;;;;;;;;;;15.75;84.45;100650.98;1317092;94;20761;-86
2021/09/27 06:55:46;;;;;;;;;;;;;;;15.74;83.53;100653.34;1317380;94;20262;-85
2021/09/27 06:58:13;;;;;;;;;;;;;;;15.94;83.70;100658.20;1307806;96;20261;-84
2021/09/27 07:00:41;;;;;;;;;;;;;;;16.16;83.94;100654.70;1317145;94;20299;-85
2021/09/27 07:03:08;;;;;;;;;;;;;;;16.30;81.67;100649.61;1317286;94;20335;-85
2021/09/27 07:05:35;;;;;;;;;;;;;;;16.46;81.21;100648.14;1317198;94;20247;-85
2021/09/27 07:08:02;;;;;;;;;;;;;;;16.48;79.87;100650.11;1317595;94;20372;-85
2021/09/27 07:10:29;;;;;;;;;;;;;;;16.64;80.59;100647.80;1315435;95;20388;-86
2021/09/27 07:12:57;;;;;;;;;;;;;;;16.75;79.44;100634.00;1317591;94;20314;-85
2021/09/27 07:15:24;;;;;;;;;;;;;;;16.87;78.09;100634.41;1317263;94;20811;-85
2021/09/27 07:17:51;;;;;;;;;;;;;;;17.02;77.93;100625.05;1317775;94;20882;-85
2021/09/27 07:20:21;;;;;;;;;;;;;;;17.11;77.52;100623.41;1311384;96;20262;-85
2021/09/27 07:22:48;;;;;;;;;;;;;;;17.21;76.57;100619.66;1317168;94;20284;-84
2021/09/27 07:25:16;;;;;;;;;;;;;;;17.37;76.77;100618.08;1317995;93;20343;-84
2021/09/27 07:27:43;;;;;;;;;;;;;;;17.49;75.99;100616.61;1317572;94;20367;-84
2021/09/27 07:30:12;;;;;;;;;;;;;;;17.60;75.44;100620.10;1317686;94;20332;-84
2021/09/27 07:32:39;;;;;;;;;;;;;;;17.78;74.93;100620.22;1317888;94;20269;-85
2021/09/27 07:35:08;;;;;;;;;;;;;;;17.92;74.35;100622.01;1317806;92;20224;-85
2021/09/27 07:37:38;;;;;;;;;;;;;;;18.11;74.69;100625.09;1317282;94;20314;-84
2021/09/27 07:40:06;;;;;;;;;;;;;;;18.03;70.67;100625.52;1317527;92;20343;-85
2021/09/27 07:42:33;;;;;;;;;;;;;;;18.11;72.16;100613.03;1332320;94;20343;-85
2021/09/27 07:45:00;;;;;;;;;;;;;;;18.18;71.91;100613.91;1337947;92;20365;-83
2021/09/27 07:47:27;;;;;;;;;;;;;;;18.43;72.61;100608.97;1336361;94;20239;-83
2021/09/27 07:49:54;;;;;;;;;;;;;;;18.57;70.10;100603.20;1337823;93;20417;-84
2021/09/27 07:52:21;;;;;;;;;;;;;;;18.78;70.76;100604.48;1337993;93;20284;-83
2021/09/27 07:54:48;;;;;;;;;;;;;;;18.93;69.70;100601.69;1345410;93;20297;-88
2021/09/27 07:57:21;;;;;;;;;;;;;;;19.12;68.76;100609.01;1351477;91;20333;-86
2021/09/27 07:59:50;;;;;;;;;;;;;;;19.26;68.46;100611.25;1350662;94;20720;-89
2021/09/27 08:02:18;;;;;;;;;;;;;;;19.38;67.83;100609.63;1335277;92;20312;-87
2021/09/27 08:04:45;;;;;;;;;;;;;;;19.49;66.07;100599.36;1348155;91;20251;-87
2021/09/27 08:07:13;;;;;;;;;;;;;;;19.47;64.96;100602.23;1348352;92;20825;-87
2021/09/27 08:09:39;;;;;;;;;;;;;;;19.62;65.83;100607.43;1334473;94;20765;-87
2021/09/27 08:12:07;;;;;;;;;;;;;;;19.72;64.11;100607.91;1348733;92;20780;-87
2021/09/27 08:15:01;;;;;;;;;;;;;;;19.97;66.02;100602.80;1350908;91;20314;-94
2021/09/27 08:20:04;;;;;;;;;;;;;;;20.41;65.43;100599.19;1396545;87;20250;-96
2021/09/27 08:22:31;;;;;;;;;;;;;;;20.51;62.61;100596.89;1391732;90;20302;-95
2021/09/27 08:25:08;;;;;;;;;;;;;;;20.78;64.17;100600.93;1390644;89;20272;-93
2021/09/27 08:27:36;;;;;;;;;;;;;;;20.89;61.50;100601.62;1390576;89;20335;-94
2021/09/27 08:30:09;;;;;;;;;;;;;;;20.96;61.86;100591.66;1389633;88;20353;-92
2021/09/27 08:32:36;;;;;;;;;;;;;;;21.22;62.55;100597.98;1390021;88;20375;-94
2021/09/27 08:35:04;;;;;;;;;;;;;;;21.29;61.87;100602.81;1390104;89;20763;-93
2021/09/27 08:37:42;;;;;;;;;;;;;;;21.46;60.18;100596.45;1376626;92;20778;-93
2021/09/27 08:40:13;;;;;;;;;;;;;;;21.50;58.64;100595.81;1391516;89;20250;-96
2021/09/27 08:42:41;;;;;;;;;;;;;;;21.67;58.91;100596.14;1391569;88;20272;-95
2021/09/27 08:45:18;;;;;;;;;;;;;;;21.38;57.45;100597.55;1391297;90;20243;-94
2021/09/27 08:48:01;;;;;;;;;;;;;;;21.50;58.21;100597.16;1391989;88;20302;-96
2021/09/27 08:50:35;;;;;;;;;;;;;;;21.72;58.34;100596.81;1390008;89;20346;-96
2021/09/27 08:53:05;;;;;;;;;;;;;;;21.91;58.95;100589.13;1392924;89;20369;-96
2021/09/27 08:56:18;;;;;;;;;;;;;;;22.04;57.63;100587.70;1393296;88;20786;-96
2021/09/27 08:59:02;;;;;;;;;;;;;;;22.25;58.04;100583.00;1391851;89;20265;-96
2021/09/27 09:01:33;;;;;;;;;;;;;;;22.50;55.82;100582.45;1391296;89;20265;-96
2021/09/27 09:04:04;;;;;;;;;;;;;;;22.56;54.82;100578.05;1392573;89;20794;-95
2021/09/27 09:06:42;;;;;;;;;;;;;;;22.73;56.62;100585.03;1391256;89;20257;-96
2021/09/27 09:09:19;;;;;;;;;;;;;;;22.75;56.46;100574.82;1387555;89;20272;-95
2021/09/27 09:11:59;;;;;;;;;;;;;;;22.76;55.68;100575.14;1391575;88;20777;-93
2021/09/27 09:14:47;;;;;;;;;;;;;;;22.80;54.61;100569.58;1390740;90;20279;-93
2021/09/27 09:17:24;;;;;;;;;;;;;;;22.79;53.10;100574.69;1386607;89;20298;-95
2021/09/27 09:19:54;;;;;;;;;;;;;;;22.91;53.82;100573.41;1386684;89;20240;-92
2021/09/27 09:22:36;;;;;;;;;;;;;;;23.06;53.85;100567.66;1367610;91;20294;-93
2021/09/27 09:25:09;;;;;;;;;;;;;;;23.34;54.24;100569.80;1389763;90;20292;-96
2021/09/27 09:27:48;;;;;;;;;;;;;;;23.41;52.03;100569.98;1396805;88;20247;-93
2021/09/27 09:30:15;;;;;;;;;;;;;;;23.39;53.12;100570.77;1394038;88;20775;-94
2021/09/27 09:32:49;;;;;;;;;;;;;;;23.59;52.30;100573.19;1377643;90;21243;-96
2021/09/27 09:35:22;;;;;;;;;;;;;;;23.78;51.84;100565.85;1378372;90;20241;-95
2021/09/27 09:37:54;;;;;;;;;;;;;;;23.91;51.50;100562.14;1377635;90;20227;-96
2021/09/27 09:40:28;;;;;;;;;;;;;;;24.01;50.00;100564.25;1377884;90;20240;-94
2021/09/27 09:43:04;;;;;;;;;;;;;;;24.19;51.65;100560.62;1377019;90;20233;-95
2021/09/27 09:49:12;;;;;;;;;;;;;;;24.37;51.37;100567.80;1383848;87;20281;-94
2021/09/27 09:51:47;;;;;;;;;;;;;;;24.56;48.55;100558.53;1375156;90;20274;-95
2021/09/27 09:54:20;;;;;;;;;;;;;;;24.58;48.84;100555.07;1358009;91;20254;-96
2021/09/27 09:57:08;;;;;;;;;;;;;;;24.76;48.68;100555.45;1356935;91;20751;-96
2021/09/27 10:00:08;;;;;;;;;;;;;;;24.98;47.79;100549.69;1371957;90;20295;-96
2021/09/27 10:02:37;;;;;;;;;;;;;;;24.79;46.45;100548.73;1349555;90;20266;-94
2021/09/27 10:05:08;;;;;;;;;;;;;;;24.89;47.62;100542.20;1376038;90;20274;-94
2021/09/27 10:07:48;;;;;;;;;;;;;;;24.86;46.76;100546.70;1376063;90;20289;-94
2021/09/27 10:10:46;;;;;;;;;;;;;;;24.92;47.01;100541.72;1375063;90;20266;-91
2021/09/27 10:13:40;;;;;;;;;;;;;;;25.14;47.44;100530.52;1371839;90;20277;-93
2021/09/27 10:16:10;;;;;;;;;;;;;;;25.46;48.72;100532.73;1375211;90;20274;-95
2021/09/27 10:18:39;;;;;;;;;;;;;;;25.80;47.83;100534.95;1375097;90;20356;-95
2021/09/27 10:21:18;;;;;;;;;;;;;;;25.95;47.79;100530.38;1375836;90;20320;-95
2021/09/27 10:23:49;;;;;;;;;;;;;;;26.13;46.02;100523.86;1374697;90;20266;-96
2021/09/27 10:26:38;;;;;;;;;;;;;;;26.12;43.78;100523.55;1374409;92;20282;-96
2021/09/27 10:29:12;;;;;;;;;;;;;;;26.11;44.14;100520.56;1376227;91;20303;-95
2021/09/27 10:31:45;;;;;;;;;;;;;;;26.10;45.13;100522.47;1375679;90;20352;-96
2021/09/27 10:34:19;;;;;;;;;;;;;;;26.17;43.80;100522.83;1376020;90;20921;-96
2021/09/27 10:36:58;;;;;;;;;;;;;;;26.08;42.86;100515.64;1377471;90;20324;-94
2021/09/27 10:39:26;;;;;;;;;;;;;;;25.90;42.67;100506.42;1377093;90;20267;-94
2021/09/27 10:42:09;;;;;;;;;;;;;;;26.09;44.40;100509.14;1376952;90;20794;-95
2021/09/27 10:44:43;;;;;;;;;;;;;;;26.02;43.07;100505.80;1377025;90;20319;-96
2021/09/27 10:47:17;;;;;;;;;;;;;;;26.26;43.46;100501.80;1377875;90;20364;-96
2021/09/27 10:49:47;;;;;;;;;;;;;;;26.53;43.70;100496.52;1377483;90;20266;-96
2021/09/27 10:52:21;;;;;;;;;;;;;;;26.65;41.24;100505.08;1376261;90;21031;-96
2021/09/27 10:54:58;;;;;;;;;;;;;;;26.91;43.46;100504.84;1374985;89;20319;-87
2021/09/27 10:57:31;;;;;;;;;;;;;;;27.02;42.13;100506.60;1374023;90;20273;-88
2021/09/27 11:00:31;;;;;;;;;;;;;;;27.08;41.45;100504.77;1361674;91;20320;-87
2021/09/27 11:03:02;;;;;;;;;;;;;;;27.05;39.56;100502.56;1318050;94;20255;-88
2021/09/27 11:05:36;;;;;;;;;;;;;;;27.09;41.10;100501.77;1367793;90;20371;-88
2021/09/27 11:08:09;;;;;;;;;;;;;;;27.08;40.43;100503.41;1373942;90;20374;-88
2021/09/27 11:10:45;;;;;;;;;;;;;;;27.04;39.32;100498.18;1374075;89;20267;-88
2021/09/27 11:13:31;;;;;;;;;;;;;;;27.33;40.93;100496.06;1373949;89;20326;-88
2021/09/27 11:15:59;;;;;;;;;;;;;;;27.59;39.76;100491.67;1373683;88;20274;-88
2021/09/27 11:18:30;;;;;;;;;;;;;;;27.88;39.67;100489.52;1374322;90;20253;-88
2021/09/27 11:21:22;;;;;;;;;;;;;;;28.09;39.51;100482.30;1360929;92;20742;-89
2021/09/27 11:23:51;;;;;;;;;;;;;;;28.15;39.00;100479.89;1372581;89;20794;-88
2021/09/27 11:26:24;;;;;;;;;;;;;;;28.22;38.31;100476.38;1360459;91;20445;-89
2021/09/27 11:29:29;;;;;;;;;;;;;;;28.15;37.57;100474.45;1374053;90;20802;-88
2021/09/27 11:32:17;;;;;;;;;;;;;;;28.33;38.17;100472.62;1374491;90;20259;-88
2021/09/27 11:35:09;;;;;;;;;;;;;;;27.99;36.85;100465.91;1374678;89;20260;-88
2021/09/27 11:37:43;;;;;;;;;;;;;;;28.18;38.97;100474.47;1373580;90;20274;-89
2021/09/27 11:40:16;;;;;;;;;;;;;;;28.35;38.18;100471.83;1373517;90;20274;-87
2021/09/27 11:42:50;;;;;;;;;;;;;;;28.44;37.35;100464.56;1371357;90;20273;-88
2021/09/27 11:45:34;;;;;;;;;;;;;;;28.54;37.08;100464.58;1373756;91;20281;-89
2021/09/27 11:48:10;;;;;;;;;;;;;;;28.72;36.06;100474.20;1374899;90;20252;-88
2021/09/27 11:50:50;;;;;;;;;;;;;;;28.86;35.66;100467.17;1374541;89;20275;-90
2021/09/27 11:53:24;;;;;;;;;;;;;;;29.05;35.80;100466.69;1374255;90;20297;-91
2021/09/27 11:56:07;;;;;;;;;;;;;;;28.82;34.76;100457.06;1374440;90;20259;-87
2021/09/27 11:59:01;;;;;;;;;;;;;;;29.01;35.33;100463.11;1373842;90;20371;-87
2021/09/27 12:02:18;;;;;;;;;;;;;;;29.18;35.21;100463.45;1374087;89;20326;-87
2021/09/27 12:05:15;;;;;;;;;;;;;;;29.52;36.42;100456.94;1373967;90;20356;-88
2021/09/27 12:11:58;;;;;;;;;;;;;;;29.70;33.85;100443.86;1341820;92;20244;-88
2021/09/27 12:14:41;;;;;;;;;;;;;;;29.46;34.84;100445.20;1339745;92;20228;-88
2021/09/27 12:17:13;;;;;;;;;;;;;;;29.62;34.25;100439.22;1339985;92;20326;-88
2021/09/27 12:19:47;;;;;;;;;;;;;;;29.45;33.24;100437.29;1373784;90;20387;-88
2021/09/27 12:22:18;;;;;;;;;;;;;;;29.93;34.63;100439.18;1369830;90;20288;-88
2021/09/27 12:24:45;;;;;;;;;;;;;;;29.90;33.75;100443.83;1377591;89;20334;-88
2021/09/27 12:27:16;;;;;;;;;;;;;;;29.79;32.71;100442.20;1377326;89;20904;-87
2021/09/27 12:30:02;;;;;;;;;;;;;;;29.97;32.71;100436.71;1377269;89;20348;-87
2021/09/27 12:32:35;;;;;;;;;;;;;;;29.83;33.03;100442.73;1377553;89;20352;-85
2021/09/27 12:35:15;;;;;;;;;;;;;;;30.29;32.57;100425.45;1377193;90;20362;-86
2021/09/27 12:37:44;;;;;;;;;;;;;;;30.69;32.26;100426.36;1375845;90;20381;-86
2021/09/27 12:40:14;;;;;;;;;;;;;;;30.82;31.63;100432.61;1377147;90;20274;-86
2021/09/27 12:42:48;;;;;;;;;;;;;;;31.33;32.51;100430.04;1377302;90;20408;-87
2021/09/27 12:45:37;;;;;;;;;;;;;;;31.41;31.65;100434.38;1377780;89;20266;-86
2021/09/27 12:48:12;;;;;;;;;;;;;;;31.47;31.11;100432.41;1377379;89;20267;-86
2021/09/27 12:50:42;;;;;;;;;;;;;;;31.79;30.87;100424.18;1376059;89;20773;-86
2021/09/27 12:53:16;;;;;;;;;;;;;;;32.25;30.24;100425.06;1375009;90;20363;-87
2021/09/27 12:55:49;;;;;;;;;;;;;;;32.38;29.42;100422.19;1374741;90;20399;-87
2021/09/27 12:58:24;;;;;;;;;;;;;;;32.45;29.97;100422.63;1375001;90;20772;-87
2021/09/27 13:00:52;;;;;;;;;;;;;;;32.78;29.32;100423.59;1374741;91;20267;-87
2021/09/27 13:06:51;;;;;;;;;;;;;;;33.24;28.21;100413.31;1361778;91;20275;-87
2021/09/27 13:09:24;;;;;;;;;;;;;;;32.99;28.02;100413.96;1373462;90;20264;-88
2021/09/27 13:12:10;;;;;;;;;;;;;;;32.78;28.52;100407.95;1375337;90;20371;-88
2021/09/27 13:14:46;;;;;;;;;;;;;;;32.77;28.48;100409.08;1375069;90;20832;-88
2021/09/27 13:17:23;;;;;;;;;;;;;;;32.46;29.02;100410.05;1360759;91;20357;-88
2021/09/27 13:19:56;;;;;;;;;;;;;;;32.45;29.27;100410.30;1374866;90;20363;-87
2021/09/27 13:22:27;;;;;;;;;;;;;;;32.90;28.80;100406.70;1367297;90;20305;-87
2021/09/27 13:24:57;;;;;;;;;;;;;;;32.19;28.30;100406.52;1374726;89;20267;-86
2021/09/27 13:27:27;;;;;;;;;;;;;;;32.17;29.86;100406.02;1372200;90;20810;-87
2021/09/27 13:29:58;;;;;;;;;;;;;;;32.19;29.23;100398.30;1374904;90;20788;-87
2021/09/27 13:32:31;;;;;;;;;;;;;;;32.45;28.58;100398.81;1373950;90;20267;-87
2021/09/27 13:35:18;;;;;;;;;;;;;;;32.33;28.90;100396.48;1375070;90;20282;-87
2021/09/27 13:37:49;;;;;;;;;;;;;;;31.97;29.37;100390.64;1376355;90;20311;-88
2021/09/27 13:40:23;;;;;;;;;;;;;;;31.25;31.22;100395.39;1374857;90;20334;-86
2021/09/27 13:42:53;;;;;;;;;;;;;;;30.74;32.54;100393.55;1375171;90;20267;-88
2021/09/27 13:45:34;;;;;;;;;;;;;;;30.40;32.79;100393.47;1373684;90;20748;-88